sensor_id;sensor_type;location;lat;lon;timestamp;pressure;altitude;pressure_sealevel;temperature;humidity
22047;BME280;11187;49.412;20.956;2023-02-15T00:02:35;96523.72;;;1.47;100.00
22047;BME280;11187;49.412;20.956;2023-02-15T00:05:09;96531.25;;;1.45;100.00
22047;BME280;11187;49.412;20.956;2023-02-15T00:08:02;96531.34;;;1.49;100.00
22047;BME280;11187;49.412;20.956;2023-02-15T00:11:14;96522.03;;;1.48;100.00
22047;BME280;11187;49.412;20.956;2023-02-15T00:13:48;96527.91;;;1.46;100.00
22047;BME280;11187;49.412;20.956;2023-02-15T00:16:35;96529.63;;;1.48;100.00
22047;BME280;11187;49.412;20.956;2023-02-15T00:19:10;96531.25;;;1.45;100.00
22047;BME280;11187;49.412;20.956;2023-02-15T00:21:57;96526.19;;;1.45;100.00
22047;BME280;11187;49.412;20.956;2023-02-15T00:24:31;96523.59;;;1.44;100.00
22047;BME280;11187;49.412;20.956;2023-02-15T00:27:18;96517.72;;;1.43;100.00
22047;BME280;11187;49.412;20.956;2023-02-15T00:29:52;96524.47;;;1.44;100.00
22047;BME280;11187;49.412;20.956;2023-02-15T00:32:38;96510.91;;;1.42;100.00
22047;BME280;11187;49.412;20.956;2023-02-15T00:35:12;96522.56;;;1.39;100.00
22047;BME280;11187;49.412;20.956;2023-02-15T00:37:58;96515.84;;;1.39;100.00
22047;BME280;11187;49.412;20.956;2023-02-15T00:40:32;96514.25;;;1.41;100.00
22047;BME280;11187;49.412;20.956;2023-02-15T00:43:18;96514.19;;;1.40;100.00
22047;BME280;11187;49.412;20.956;2023-02-15T00:45:52;96512.41;;;1.37;100.00
22047;BME280;11187;49.412;20.956;2023-02-15T00:48:38;96505.50;;;1.33;100.00
22047;BME280;11187;49.412;20.956;2023-02-15T00:51:12;96513.16;;;1.35;100.00
22047;BME280;11187;49.412;20.956;2023-02-15T00:53:59;96503.81;;;1.32;100.00
22047;BME280;11187;49.412;20.956;2023-02-15T00:56:45;96495.41;;;1.33;100.00
22047;BME280;11187;49.412;20.956;2023-02-15T00:59:39;96502.22;;;1.34;100.00
22047;BME280;11187;49.412;20.956;2023-02-15T01:02:13;96499.53;;;1.31;100.00
22047;BME280;11187;49.412;20.956;2023-02-15T01:04:59;96498.56;;;1.28;100.00
22047;BME280;11187;49.412;20.956;2023-02-15T01:07:33;96496.09;;;1.29;100.00
22047;BME280;11187;49.412;20.956;2023-02-15T01:10:27;96490.25;;;1.30;100.00
22047;BME280;11187;49.412;20.956;2023-02-15T01:13:21;96493.72;;;1.32;100.00
22047;BME280;11187;49.412;20.956;2023-02-15T01:16:16;96487.75;;;1.30;100.00
22047;BME280;11187;49.412;20.956;2023-02-15T01:18:49;96488.53;;;1.29;100.00
22047;BME280;11187;49.412;20.956;2023-02-15T01:21:42;96486.81;;;1.28;100.00
22047;BME280;11187;49.412;20.956;2023-02-15T01:24:36;96476.78;;;1.30;100.00
22047;BME280;11187;49.412;20.956;2023-02-15T01:27:10;96486.81;;;1.28;100.00
22047;BME280;11187;49.412;20.956;2023-02-15T01:29:56;96472.44;;;1.25;100.00
22047;BME280;11187;49.412;20.956;2023-02-15T01:32:30;96473.28;;;1.26;100.00
22047;BME280;11187;49.412;20.956;2023-02-15T01:35:17;96465.72;;;1.26;100.00
22047;BME280;11187;49.412;20.956;2023-02-15T01:37:51;96468.31;;;1.28;100.00
22047;BME280;11187;49.412;20.956;2023-02-15T01:40:37;96469.94;;;1.27;100.00
22047;BME280;11187;49.412;20.956;2023-02-15T01:43:12;96469.22;;;1.30;100.00
22047;BME280;11187;49.412;20.956;2023-02-15T01:45:58;96471.69;;;1.28;100.00
22047;BME280;11187;49.412;20.956;2023-02-15T01:48:32;96465.03;;;1.30;100.00
22047;BME280;11187;49.412;20.956;2023-02-15T01:51:27;96463.38;;;1.31;100.00
22047;BME280;11187;49.412;20.956;2023-02-15T01:57:08;96459.91;;;1.29;100.00
22047;BME280;11187;49.412;20.956;2023-02-15T01:59:46;96452.28;;;1.27;100.00
22047;BME280;11187;49.412;20.956;2023-02-15T02:02:33;96456.47;;;1.27;100.00
22047;BME280;11187;49.412;20.956;2023-02-15T02:05:07;96454.69;;;1.24;100.00
22047;BME280;11187;49.412;20.956;2023-02-15T02:08:02;96450.41;;;1.21;100.00
22047;BME280;11187;49.412;20.956;2023-02-15T02:10:58;96454.50;;;1.19;100.00
22047;BME280;11187;49.412;20.956;2023-02-15T02:13:32;96451.16;;;1.19;100.00
22047;BME280;11187;49.412;20.956;2023-02-15T02:39:27;96435.94;;;1.17;100.00
22047;BME280;11187;49.412;20.956;2023-02-15T02:42:35;96427.59;;;1.18;100.00
22047;BME280;11187;49.412;20.956;2023-02-15T02:45:42;96431.72;;;1.16;100.00
22047;BME280;11187;49.412;20.956;2023-02-15T02:48:20;96429.84;;;1.12;100.00
22047;BME280;11187;49.412;20.956;2023-02-15T02:51:08;96434.16;;;1.15;100.00
22047;BME280;11187;49.412;20.956;2023-02-15T02:53:42;96439.19;;;1.15;100.00
22047;BME280;11187;49.412;20.956;2023-02-15T02:56:42;96439.19;;;1.15;100.00
22047;BME280;11187;49.412;20.956;2023-02-15T02:59:41;96431.63;;;1.15;100.00
22047;BME280;11187;49.412;20.956;2023-02-15T03:02:41;96440.69;;;1.10;100.00
22047;BME280;11187;49.412;20.956;2023-02-15T03:05:19;96438.22;;;1.11;100.00
22047;BME280;11187;49.412;20.956;2023-02-15T03:08:08;96439.88;;;1.11;100.00
22047;BME280;11187;49.412;20.956;2023-02-15T03:10:43;96438.28;;;1.13;100.00
22047;BME280;11187;49.412;20.956;2023-02-15T03:13:31;96437.50;;;1.14;100.00
22047;BME280;11187;49.412;20.956;2023-02-15T03:16:05;96440.91;;;1.16;100.00
22047;BME280;11187;49.412;20.956;2023-02-15T03:19:09;96434.22;;;1.16;100.00
22047;BME280;11187;49.412;20.956;2023-02-15T03:21:51;96441.84;;;1.18;100.00
22047;BME280;11187;49.412;20.956;2023-02-15T03:25:31;96436.78;;;1.18;100.00
22047;BME280;11187;49.412;20.956;2023-02-15T03:28:06;96441.84;;;1.18;100.00
22047;BME280;11187;49.412;20.956;2023-02-15T03:31:04;96436.00;;;1.19;100.00
22047;BME280;11187;49.412;20.956;2023-02-15T03:34:02;96432.66;;;1.20;100.00
22047;BME280;11187;49.412;20.956;2023-02-15T03:39:59;96431.72;;;1.16;100.00
22047;BME280;11187;49.412;20.956;2023-02-15T03:43:12;96439.13;;;1.13;100.00
22047;BME280;11187;49.412;20.956;2023-02-15T03:46:19;96434.97;;;1.14;100.00
22047;BME280;11187;49.412;20.956;2023-02-15T03:49:22;96436.63;;;1.13;100.00
22047;BME280;11187;49.412;20.956;2023-02-15T03:51:59;96429.00;;;1.12;100.00
22047;BME280;11187;49.412;20.956;2023-02-15T03:54:47;96432.28;;;1.09;100.00
22047;BME280;11187;49.412;20.956;2023-02-15T03:57:41;96425.56;;;1.10;100.00
22047;BME280;11187;49.412;20.956;2023-02-15T04:00:36;96425.56;;;1.10;100.00
22047;BME280;11187;49.412;20.956;2023-02-15T04:03:52;96428.88;;;1.09;100.00
22047;BME280;11187;49.412;20.956;2023-02-15T04:06:49;96426.22;;;1.06;100.00
22047;BME280;11187;49.412;20.956;2023-02-15T04:09:43;96430.34;;;1.03;100.00
22047;BME280;11187;49.412;20.956;2023-02-15T04:12:35;96430.34;;;1.03;100.00
22047;BME280;11187;49.412;20.956;2023-02-15T04:15:21;96426.97;;;1.03;100.00
22047;BME280;11187;49.412;20.956;2023-02-15T04:18:14;96422.72;;;1.02;100.00
22047;BME280;11187;49.412;20.956;2023-02-15T04:21:00;96423.59;;;1.02;100.00
22047;BME280;11187;49.412;20.956;2023-02-15T04:23:52;96415.13;;;1.00;100.00
22047;BME280;11187;49.412;20.956;2023-02-15T04:26:57;96424.38;;;1.01;100.00
22047;BME280;11187;49.412;20.956;2023-02-15T04:29:31;96423.53;;;1.01;100.00
22047;BME280;11187;49.412;20.956;2023-02-15T04:32:18;96421.88;;;1.01;100.00
22047;BME280;11187;49.412;20.956;2023-02-15T04:34:52;96421.78;;;1.00;100.00
22047;BME280;11187;49.412;20.956;2023-02-15T04:37:40;96421.00;;;1.01;100.00
22047;BME280;11187;49.412;20.956;2023-02-15T04:40:14;96416.03;;;1.02;100.00
22047;BME280;11187;49.412;20.956;2023-02-15T04:43:01;96419.41;;;1.03;100.00
22047;BME280;11187;49.412;20.956;2023-02-15T04:45:35;96420.19;;;1.02;100.00
22047;BME280;11187;49.412;20.956;2023-02-15T04:48:28;96421.00;;;1.01;100.00
22047;BME280;11187;49.412;20.956;2023-02-15T04:51:06;96421.13;;;1.04;100.00
22047;BME280;11187;49.412;20.956;2023-02-15T04:53:59;96415.22;;;1.03;100.00
22047;BME280;11187;49.412;20.956;2023-02-15T04:56:53;96416.81;;;1.01;100.00
22047;BME280;11187;49.412;20.956;2023-02-15T04:59:47;96411.78;;;1.01;100.00
22047;BME280;11187;49.412;20.956;2023-02-15T05:02:41;96418.41;;;0.99;100.00
22047;BME280;11187;49.412;20.956;2023-02-15T05:05:15;96422.53;;;0.97;100.00
22047;BME280;11187;49.412;20.956;2023-02-15T05:08:02;96422.50;;;0.96;100.00
22047;BME280;11187;49.412;20.956;2023-02-15T05:10:36;96425.03;;;0.96;100.00
22047;BME280;11187;49.412;20.956;2023-02-15T05:13:24;96429.06;;;0.92;100.00
22047;BME280;11187;49.412;20.956;2023-02-15T05:15:57;96425.63;;;0.90;100.00
22047;BME280;11187;49.412;20.956;2023-02-15T05:18:50;96433.16;;;0.89;100.00
22047;BME280;11187;49.412;20.956;2023-02-15T05:21:44;96436.34;;;0.85;100.00
22047;BME280;11187;49.412;20.956;2023-02-15T05:24:38;96432.22;;;0.87;100.00
22047;BME280;11187;49.412;20.956;2023-02-15T05:27:30;96432.22;;;0.87;100.00
22047;BME280;11187;49.412;20.956;2023-02-15T05:30:43;96429.69;;;0.87;100.00
22047;BME280;11187;49.412;20.956;2023-02-15T05:33:17;96430.63;;;0.89;100.00
22047;BME280;11187;49.412;20.956;2023-02-15T05:36:12;96435.59;;;0.87;100.00
22047;BME280;11187;49.412;20.956;2023-02-15T05:39:05;96430.41;;;0.84;100.00
22047;BME280;11187;49.412;20.956;2023-02-15T05:41:41;96431.22;;;0.83;100.00
22047;BME280;11187;49.412;20.956;2023-02-15T05:44:27;96434.56;;;0.82;100.00
22047;BME280;11187;49.412;20.956;2023-02-15T05:47:01;96435.44;;;0.84;100.00
22047;BME280;11187;49.412;20.956;2023-02-15T05:49:47;96433.16;;;0.89;100.00
22047;BME280;11187;49.412;20.956;2023-02-15T05:52:21;96437.44;;;0.91;100.00
22047;BME280;11187;49.412;20.956;2023-02-15T05:55:08;96436.56;;;0.91;100.00
22047;BME280;11187;49.412;20.956;2023-02-15T05:58:01;96435.66;;;0.89;100.00
22047;BME280;11187;49.412;20.956;2023-02-15T06:00:35;96438.22;;;0.90;100.00
22047;BME280;11187;49.412;20.956;2023-02-15T06:03:22;96438.31;;;0.92;100.00
22047;BME280;11187;49.412;20.956;2023-02-15T06:05:56;96439.09;;;0.91;100.00
22047;BME280;11187;49.412;20.956;2023-02-15T06:08:50;96442.53;;;0.93;100.00
22047;BME280;11187;49.412;20.956;2023-02-15T06:11:24;96440.06;;;0.94;100.00
22047;BME280;11187;49.412;20.956;2023-02-15T06:14:11;96448.47;;;0.93;100.00
22047;BME280;11187;49.412;20.956;2023-02-15T06:16:44;96447.56;;;0.93;100.00
22047;BME280;11187;49.412;20.956;2023-02-15T06:19:30;96445.88;;;0.92;100.00
22047;BME280;11187;49.412;20.956;2023-02-15T06:22:05;96449.16;;;0.91;100.00
22047;BME280;11187;49.412;20.956;2023-02-15T06:24:53;96444.88;;;0.88;100.00
22047;BME280;11187;49.412;20.956;2023-02-15T06:27:27;96449.88;;;0.87;100.00
22047;BME280;11187;49.412;20.956;2023-02-15T06:30:20;96451.66;;;0.89;100.00
22047;BME280;11187;49.412;20.956;2023-02-15T06:33:14;96440.72;;;0.89;100.00
22047;BME280;11187;49.412;20.956;2023-02-15T06:35:48;96449.06;;;0.88;100.00
22047;BME280;11187;49.412;20.956;2023-02-15T06:38:34;96446.59;;;0.89;100.00
22047;BME280;11187;49.412;20.956;2023-02-15T06:41:08;96455.88;;;0.90;100.00
22047;BME280;11187;49.412;20.956;2023-02-15T06:43:54;96455.22;;;0.94;100.00
22047;BME280;11187;49.412;20.956;2023-02-15T06:46:28;96451.09;;;0.96;100.00
22047;BME280;11187;49.412;20.956;2023-02-15T06:49:21;96451.16;;;0.98;100.00
22047;BME280;11187;49.412;20.956;2023-02-15T06:52:15;96446.97;;;0.98;100.00
22047;BME280;11187;49.412;20.956;2023-02-15T06:54:49;96446.31;;;1.02;100.00
22047;BME280;11187;49.412;20.956;2023-02-15T06:57:42;96448.00;;;1.03;100.00
22047;BME280;11187;49.412;20.956;2023-02-15T07:00:36;96444.81;;;1.08;100.00
22047;BME280;11187;49.412;20.956;2023-02-15T07:03:13;96444.81;;;1.08;100.00
22047;BME280;11187;49.412;20.956;2023-02-15T07:06:01;96453.13;;;1.05;100.00
22047;BME280;11187;49.412;20.956;2023-02-15T07:08:37;96449.00;;;1.07;100.00
22047;BME280;11187;49.412;20.956;2023-02-15T07:11:32;96447.50;;;1.12;100.00
22047;BME280;11187;49.412;20.956;2023-02-15T07:14:24;96451.81;;;1.15;100.00
22047;BME280;11187;49.412;20.956;2023-02-15T07:17:10;96453.78;;;1.22;100.00
22047;BME280;11187;49.412;20.956;2023-02-15T07:20:06;96448.88;;;1.25;100.00
22047;BME280;11187;49.412;20.956;2023-02-15T07:23:01;96444.72;;;1.27;100.00
22047;BME280;11187;49.412;20.956;2023-02-15T07:25:59;96447.13;;;1.24;100.00
22047;BME280;11187;49.412;20.956;2023-02-15T07:28:52;96443.84;;;1.27;100.00
22047;BME280;11187;49.412;20.956;2023-02-15T07:31:46;96434.78;;;1.32;100.00
22047;BME280;11187;49.412;20.956;2023-02-15T07:34:40;96435.00;;;1.36;100.00
22047;BME280;11187;49.412;20.956;2023-02-15T07:37:14;96434.94;;;1.35;100.00
22047;BME280;11187;49.412;20.956;2023-02-15T07:40:00;96431.59;;;1.36;100.00
22047;BME280;11187;49.412;20.956;2023-02-15T07:42:34;96432.53;;;1.38;100.00
22047;BME280;11187;49.412;20.956;2023-02-15T07:45:21;96430.25;;;1.44;100.00
22047;BME280;11187;49.412;20.956;2023-02-15T07:47:54;96427.97;;;1.50;100.00
22047;BME280;11187;49.412;20.956;2023-02-15T07:50:40;96438.91;;;1.51;100.00
22047;BME280;11187;49.412;20.956;2023-02-15T07:53:14;96434.78;;;1.53;100.00
22047;BME280;11187;49.412;20.956;2023-02-15T07:56:02;96440.03;;;1.59;100.00
22047;BME280;11187;49.412;20.956;2023-02-15T07:58:56;96438.41;;;1.59;100.00
22047;BME280;11187;49.412;20.956;2023-02-15T08:01:51;96435.22;;;1.65;100.00
22047;BME280;11187;49.412;20.956;2023-02-15T08:04:45;96428.66;;;1.70;100.00
22047;BME280;11187;49.412;20.956;2023-02-15T08:07:39;96430.34;;;1.70;100.00
22047;BME280;11187;49.412;20.956;2023-02-15T08:10:35;96423.78;;;1.75;100.00
22047;BME280;11187;49.412;20.956;2023-02-15T08:13:43;96423.09;;;1.79;100.00
22047;BME280;11187;49.412;20.956;2023-02-15T08:16:38;96419.97;;;1.84;100.00
22047;BME280;11187;49.412;20.956;2023-02-15T08:19:17;96414.25;;;1.90;100.00
22047;BME280;11187;49.412;20.956;2023-02-15T08:22:06;96412.81;;;1.97;100.00
22047;BME280;11187;49.412;20.956;2023-02-15T08:24:40;96408.03;;;2.04;100.00
22047;BME280;11187;49.412;20.956;2023-02-15T08:27:26;96400.72;;;2.12;100.00
22047;BME280;11187;49.412;20.956;2023-02-15T08:30:00;96402.72;;;2.21;100.00
22047;BME280;11187;49.412;20.956;2023-02-15T08:32:46;96403.72;;;2.26;100.00
22047;BME280;11187;49.412;20.956;2023-02-15T08:35:20;96398.75;;;2.29;100.00
22047;BME280;11187;49.412;20.956;2023-02-15T08:38:07;96398.81;;;2.30;100.00
22047;BME280;11187;49.412;20.956;2023-02-15T08:40:41;96405.72;;;2.35;100.00
22047;BME280;11187;49.412;20.956;2023-02-15T08:43:27;96398.97;;;2.35;100.00
22047;BME280;11187;49.412;20.956;2023-02-15T08:46:01;96400.50;;;2.30;100.00
22047;BME280;11187;49.412;20.956;2023-02-15T08:48:48;96400.88;;;2.41;100.00
22047;BME280;11187;49.412;20.956;2023-02-15T08:51:26;96400.28;;;2.49;100.00
22047;BME280;11187;49.412;20.956;2023-02-15T08:54:16;96399.75;;;2.58;100.00
22047;BME280;11187;49.412;20.956;2023-02-15T08:56:50;96396.59;;;2.65;100.00
22047;BME280;11187;49.412;20.956;2023-02-15T08:59:43;96397.63;;;2.70;100.00
22047;BME280;11187;49.412;20.956;2023-02-15T09:02:37;96392.66;;;2.74;100.00
22047;BME280;11187;49.412;20.956;2023-02-15T09:05:11;96392.66;;;2.74;100.00
22047;BME280;11187;49.412;20.956;2023-02-15T09:07:57;96391.28;;;2.83;100.00
22047;BME280;11187;49.412;20.956;2023-02-15T09:10:31;96391.91;;;3.03;100.00
22047;BME280;11187;49.412;20.956;2023-02-15T09:13:17;96385.84;;;3.25;100.00
22047;BME280;11187;49.412;20.956;2023-02-15T09:15:59;96384.09;;;3.51;100.00
22047;BME280;11187;49.412;20.956;2023-02-15T09:18:46;96376.56;;;3.83;100.00
22047;BME280;11187;49.412;20.956;2023-02-15T09:21:23;96381.75;;;4.18;99.86
22047;BME280;11187;49.412;20.956;2023-02-15T09:24:17;96378.63;;;4.62;95.79
22047;BME280;11187;49.412;20.956;2023-02-15T09:26:51;96379.97;;;4.82;94.83
22047;BME280;11187;49.412;20.956;2023-02-15T09:29:37;96373.75;;;5.06;95.36
22047;BME280;11187;49.412;20.956;2023-02-15T09:32:13;96373.38;;;5.25;94.68
22047;BME280;11187;49.412;20.956;2023-02-15T09:35:01;96362.78;;;5.44;93.69
22047;BME280;11187;49.412;20.956;2023-02-15T09:37:35;96369.94;;;5.62;93.70
22047;BME280;11187;49.412;20.956;2023-02-15T09:40:22;96356.41;;;5.63;93.03
22047;BME280;11187;49.412;20.956;2023-02-15T09:48:40;96357.56;;;5.38;92.71
22047;BME280;11187;49.412;20.956;2023-02-15T09:52:10;96348.66;;;5.18;92.63
22047;BME280;11187;49.412;20.956;2023-02-15T09:55:15;96350.38;;;4.82;93.45
22047;BME280;11187;49.412;20.956;2023-02-15T10:07:03;96343.84;;;4.24;95.54
22047;BME280;11187;49.412;20.956;2023-02-15T10:13:32;96326.53;;;4.08;95.57
22047;BME280;11187;49.412;20.956;2023-02-15T10:16:31;96325.53;;;4.01;95.75
22047;BME280;11187;49.412;20.956;2023-02-15T10:22:27;96323.59;;;3.91;95.29
22047;BME280;11187;49.412;20.956;2023-02-15T10:27:53;96320.22;;;3.92;95.29
22047;BME280;11187;49.412;20.956;2023-02-15T10:30:43;96320.22;;;3.92;96.06
22047;BME280;11187;49.412;20.956;2023-02-15T10:33:42;96320.16;;;3.90;96.35
22047;BME280;11187;49.412;20.956;2023-02-15T10:48:27;96308.53;;;3.97;95.86
22047;BME280;11187;49.412;20.956;2023-02-15T10:51:10;96305.19;;;3.98;96.10
22047;BME280;11187;49.412;20.956;2023-02-15T10:54:32;96300.06;;;3.96;96.49
22047;BME280;11187;49.412;20.956;2023-02-15T10:57:11;96304.34;;;3.99;96.62
22047;BME280;11187;49.412;20.956;2023-02-15T11:00:23;96297.59;;;4.00;96.19
22047;BME280;11187;49.412;20.956;2023-02-15T11:03:36;96296.88;;;4.04;96.29
22047;BME280;11187;49.412;20.956;2023-02-15T11:06:15;96297.88;;;4.09;96.13
22047;BME280;11187;49.412;20.956;2023-02-15T11:09:09;96287.69;;;4.07;96.44
22047;BME280;11187;49.412;20.956;2023-02-15T11:11:48;96286.00;;;4.08;96.47
22047;BME280;11187;49.412;20.956;2023-02-15T11:14:53;96279.34;;;4.11;96.39
22047;BME280;11187;49.412;20.956;2023-02-15T11:17:39;96278.56;;;4.15;96.43
22047;BME280;11187;49.412;20.956;2023-02-15T11:20:42;96282.91;;;4.19;96.01
22047;BME280;11187;49.412;20.956;2023-02-15T11:23:43;96277.03;;;4.21;96.39
22047;BME280;11187;49.412;20.956;2023-02-15T11:26:50;96277.06;;;4.22;96.44
22047;BME280;11187;49.412;20.956;2023-02-15T11:32:38;96271.41;;;4.32;95.63
22047;BME280;11187;49.412;20.956;2023-02-15T11:35:37;96270.56;;;4.33;95.65
22047;BME280;11187;49.412;20.956;2023-02-15T11:38:36;96262.22;;;4.37;95.43
22047;BME280;11187;49.412;20.956;2023-02-15T11:41:20;96255.53;;;4.39;95.32
22047;BME280;11187;49.412;20.956;2023-02-15T11:44:25;96246.28;;;4.42;95.65
22047;BME280;11187;49.412;20.956;2023-02-15T11:47:28;96244.69;;;4.47;95.53
22047;BME280;11187;49.412;20.956;2023-02-15T11:50:27;96244.75;;;4.48;95.61
22047;BME280;11187;49.412;20.956;2023-02-15T11:53:06;96246.47;;;4.51;95.21
22047;BME280;11187;49.412;20.956;2023-02-15T11:55:56;96242.25;;;4.51;95.54
22047;BME280;11187;49.412;20.956;2023-02-15T12:04:09;96237.97;;;4.49;95.39
22047;BME280;11187;49.412;20.956;2023-02-15T12:10:05;96228.69;;;4.49;95.71
22047;BME280;11187;49.412;20.956;2023-02-15T12:13:18;96224.44;;;4.48;95.80
22047;BME280;11187;49.412;20.956;2023-02-15T12:16:13;96215.16;;;4.49;95.94
22047;BME280;11187;49.412;20.956;2023-02-15T12:18:46;96217.00;;;4.56;95.78
22047;BME280;11187;49.412;20.956;2023-02-15T12:21:41;96220.44;;;4.58;96.21
22047;BME280;11187;49.412;20.956;2023-02-15T12:24:37;96212.81;;;4.58;96.01
22047;BME280;11187;49.412;20.956;2023-02-15T12:27:29;96216.16;;;4.55;96.04
22047;BME280;11187;49.412;20.956;2023-02-15T12:30:25;96210.38;;;4.61;95.10
22047;BME280;11187;49.412;20.956;2023-02-15T12:33:28;96197.94;;;4.73;94.75
22047;BME280;11187;49.412;20.956;2023-02-15T12:36:29;96198.84;;;4.75;95.50
22047;BME280;11187;49.412;20.956;2023-02-15T12:44:35;96200.22;;;4.61;96.50
22047;BME280;11187;49.412;20.956;2023-02-15T12:47:22;96194.22;;;4.57;96.39
22047;BME280;11187;49.412;20.956;2023-02-15T12:50:15;96192.50;;;4.56;96.64
22047;BME280;11187;49.412;20.956;2023-02-15T12:53:20;96181.50;;;4.56;96.99
22047;BME280;11187;49.412;20.956;2023-02-15T12:56:04;96186.56;;;4.56;96.96
22047;BME280;11187;49.412;20.956;2023-02-15T12:59:04;96184.78;;;4.52;97.13
22047;BME280;11187;49.412;20.956;2023-02-15T13:01:38;96179.66;;;4.49;97.54
22047;BME280;11187;49.412;20.956;2023-02-15T13:04:27;96171.41;;;4.57;97.14
22047;BME280;11187;49.412;20.956;2023-02-15T13:07:02;96173.16;;;4.60;97.13
22047;BME280;11187;49.412;20.956;2023-02-15T13:09:49;96169.81;;;4.61;97.12
22047;BME280;11187;49.412;20.956;2023-02-15T13:12:25;96168.13;;;4.63;97.14
22047;BME280;11187;49.412;20.956;2023-02-15T13:15:24;96164.66;;;4.58;97.14
22047;BME280;11187;49.412;20.956;2023-02-15T13:18:00;96161.22;;;4.56;97.57
22047;BME280;11187;49.412;20.956;2023-02-15T13:20:48;96164.59;;;4.55;97.65
22047;BME280;11187;49.412;20.956;2023-02-15T13:23:29;96161.97;;;4.52;97.72
22047;BME280;11187;49.412;20.956;2023-02-15T13:26:20;96158.63;;;4.53;97.64
22047;BME280;11187;49.412;20.956;2023-02-15T13:28:58;96165.34;;;4.51;97.67
22047;BME280;11187;49.412;20.956;2023-02-15T13:31:49;96159.44;;;4.52;97.69
22047;BME280;11187;49.412;20.956;2023-02-15T13:34:29;96159.50;;;4.55;97.46
22047;BME280;11187;49.412;20.956;2023-02-15T13:40:07;96158.81;;;4.62;96.86
22047;BME280;11187;49.412;20.956;2023-02-15T13:43:00;96153.69;;;4.59;97.08
22047;BME280;11187;49.412;20.956;2023-02-15T13:45:39;96151.91;;;4.56;97.11
22047;BME280;11187;49.412;20.956;2023-02-15T13:52:23;96159.38;;;4.49;97.55
22047;BME280;11187;49.412;20.956;2023-02-15T13:55:15;96160.13;;;4.45;97.10
22047;BME280;11187;49.412;20.956;2023-02-15T14:01:46;96166.84;;;4.43;96.98
22047;BME280;11187;49.412;20.956;2023-02-15T14:07:28;96163.44;;;4.41;97.34
22047;BME280;11187;49.412;20.956;2023-02-15T14:10:49;96164.97;;;4.34;97.33
22047;BME280;11187;49.412;20.956;2023-02-15T14:19:52;96157.19;;;4.26;97.82
22047;BME280;11187;49.412;20.956;2023-02-15T14:23:08;96152.94;;;4.25;97.84
22047;BME280;11187;49.412;20.956;2023-02-15T14:25:42;96148.72;;;4.26;97.78
22047;BME280;11187;49.412;20.956;2023-02-15T14:29:19;96153.78;;;4.26;97.68
22047;BME280;11187;49.412;20.956;2023-02-15T14:32:02;96151.19;;;4.23;97.91
22047;BME280;11187;49.412;20.956;2023-02-15T14:35:03;96151.09;;;4.18;98.12
22047;BME280;11187;49.412;20.956;2023-02-15T14:41:02;96146.63;;;4.08;98.64
22047;BME280;11187;49.412;20.956;2023-02-15T14:46:48;96138.84;;;4.00;98.84
22047;BME280;11187;49.412;20.956;2023-02-15T14:49:38;96141.28;;;3.97;98.89
22047;BME280;11187;49.412;20.956;2023-02-15T14:52:12;96142.03;;;3.91;98.95
22047;BME280;11187;49.412;20.956;2023-02-15T14:55:07;96145.25;;;3.86;99.11
22047;BME280;11187;49.412;20.956;2023-02-15T14:58:01;96146.78;;;3.79;99.22
22047;BME280;11187;49.412;20.956;2023-02-15T15:01:12;96150.06;;;3.75;99.52
22047;BME280;11187;49.412;20.956;2023-02-15T15:04:12;96147.34;;;3.67;99.97
22047;BME280;11187;49.412;20.956;2023-02-15T15:06:59;96143.88;;;3.64;99.83
22047;BME280;11187;49.412;20.956;2023-02-15T15:10:02;96148.84;;;3.61;99.99
22047;BME280;11187;49.412;20.956;2023-02-15T15:13:35;96145.28;;;3.52;100.00
22047;BME280;11187;49.412;20.956;2023-02-15T15:22:29;96141.28;;;3.27;100.00
22047;BME280;11187;49.412;20.956;2023-02-15T15:28:06;96146.78;;;3.12;100.00
22047;BME280;11187;49.412;20.956;2023-02-15T15:30:53;96154.19;;;3.06;100.00
22047;BME280;11187;49.412;20.956;2023-02-15T15:42:41;96146.75;;;2.81;100.00
22047;BME280;11187;49.412;20.956;2023-02-15T15:48:41;96147.13;;;2.64;100.00
22047;BME280;11187;49.412;20.956;2023-02-15T15:51:39;96145.19;;;2.56;100.00
22047;BME280;11187;49.412;20.956;2023-02-15T15:54:19;96149.16;;;2.47;100.00
22047;BME280;11187;49.412;20.956;2023-02-15T15:57:14;96140.44;;;2.38;100.00
22047;BME280;11187;49.412;20.956;2023-02-15T15:59:49;96151.28;;;2.34;100.00
22047;BME280;11187;49.412;20.956;2023-02-15T16:02:52;96147.69;;;2.25;100.00
22047;BME280;11187;49.412;20.956;2023-02-15T16:05:25;96153.38;;;2.20;100.00
22047;BME280;11187;49.412;20.956;2023-02-15T16:08:12;96148.19;;;2.15;100.00
22047;BME280;11187;49.412;20.956;2023-02-15T16:10:45;96158.16;;;2.11;100.00
22047;BME280;11187;49.412;20.956;2023-02-15T16:13:33;96152.94;;;2.04;100.00
22047;BME280;11187;49.412;20.956;2023-02-15T16:16:06;96154.44;;;1.99;100.00
22047;BME280;11187;49.412;20.956;2023-02-15T16:18:54;96159.41;;;1.96;100.00
22047;BME280;11187;49.412;20.956;2023-02-15T16:21:31;96155.81;;;1.90;100.00
22047;BME280;11187;49.412;20.956;2023-02-15T16:27:22;96150.34;;;1.76;100.00
22047;BME280;11187;49.412;20.956;2023-02-15T16:33:10;96160.13;;;1.66;100.00
22047;BME280;11187;49.412;20.956;2023-02-15T16:36:27;96170.13;;;1.63;100.00
22047;BME280;11187;49.412;20.956;2023-02-15T16:39:12;96160.63;;;1.56;100.00
22047;BME280;11187;49.412;20.956;2023-02-15T16:42:11;96166.34;;;1.51;100.00
22047;BME280;11187;49.412;20.956;2023-02-15T16:45:12;96167.81;;;1.44;100.00
22047;BME280;11187;49.412;20.956;2023-02-15T16:48:28;96161.69;;;1.37;100.00
22047;BME280;11187;49.412;20.956;2023-02-15T16:51:01;96163.25;;;1.34;100.00
22047;BME280;11187;49.412;20.956;2023-02-15T16:53:56;96163.16;;;1.31;100.00
22047;BME280;11187;49.412;20.956;2023-02-15T16:56:51;96163.06;;;1.28;100.00
22047;BME280;11187;49.412;20.956;2023-02-15T16:59:47;96169.59;;;1.22;100.00